Indian Grove, Missouri
Current Conditions -  °F | °C
As of 7:55 PM on Saturday 25 Oct 2014 (Local Time) from KVER Reporting Station
Clear Clear  
Wind Chill: 67°   Ceiling: Unl
Heat Index: 67°   Visibility: 10mi
Dew Point: 50°   Wind: 0mph
Humidity: 55%   Direction: NA
Pressure: 30.02"   Gusts: NA
Location:  39.4474°N, 93.0872°W
Report Text: KVER 260055Z AUTO 00000KT 10SM CLR 19/10 A3002 RMK AO2 T01940101
Loading
Personal Weather Stations






























Interactive Weather Map
Tropical Storm Tracking
New forecast layout! Learn more

10-Day Weather Forecast

Advertisements
Track Severe Weather on mobile